sensor_id;sensor_type;location;lat;lon;timestamp;pressure;altitude;pressure_sealevel;temperature;humidity
69318;BME280;56457;52.190;4.440;2023-06-24T00:00:24;102529.03;;;18.45;100.00
69318;BME280;56457;52.190;4.440;2023-06-24T00:01:25;102529.88;;;18.47;100.00
69318;BME280;56457;52.190;4.440;2023-06-24T00:02:26;102531.63;;;18.48;100.00
69318;BME280;56457;52.190;4.440;2023-06-24T00:03:26;102526.34;;;18.46;100.00
69318;BME280;56457;52.190;4.440;2023-06-24T00:04:26;102529.00;;;18.46;100.00
69318;BME280;56457;52.190;4.440;2023-06-24T00:05:26;102532.56;;;18.44;100.00
69318;BME280;56457;52.190;4.440;2023-06-24T00:06:27;102532.56;;;18.44;100.00
69318;BME280;56457;52.190;4.440;2023-06-24T00:07:27;102528.22;;;18.37;100.00
69318;BME280;56457;52.190;4.440;2023-06-24T00:08:27;102527.41;;;18.33;100.00
69318;BME280;56457;52.190;4.440;2023-06-24T00:09:34;102527.38;;;18.35;100.00
69318;BME280;56457;52.190;4.440;2023-06-24T00:10:34;102537.16;;;18.31;100.00
69318;BME280;56457;52.190;4.440;2023-06-24T00:11:34;102535.41;;;18.30;100.00
69318;BME280;56457;52.190;4.440;2023-06-24T00:12:34;102529.28;;;18.26;100.00
69318;BME280;56457;52.190;4.440;2023-06-24T00:13:35;102536.38;;;18.26;100.00
69318;BME280;56457;52.190;4.440;2023-06-24T00:14:35;102539.91;;;18.23;100.00
69318;BME280;56457;52.190;4.440;2023-06-24T00:15:36;102531.94;;;18.23;100.00
69318;BME280;56457;52.190;4.440;2023-06-24T00:16:37;102531.06;;;18.23;100.00
69318;BME280;56457;52.190;4.440;2023-06-24T00:17:37;102535.44;;;18.25;100.00
69318;BME280;56457;52.190;4.440;2023-06-24T00:18:37;102541.63;;;18.29;100.00
69318;BME280;56457;52.190;4.440;2023-06-24T00:19:41;102535.38;;;18.32;100.00
69318;BME280;56457;52.190;4.440;2023-06-24T00:20:41;102533.50;;;18.38;100.00
69318;BME280;56457;52.190;4.440;2023-06-24T00:21:43;102533.50;;;18.41;100.00
69318;BME280;56457;52.190;4.440;2023-06-24T00:22:43;102535.28;;;18.41;100.00
69318;BME280;56457;52.190;4.440;2023-06-24T00:23:48;102536.19;;;18.40;100.00
69318;BME280;56457;52.190;4.440;2023-06-24T00:24:49;102534.38;;;18.42;100.00
69318;BME280;56457;52.190;4.440;2023-06-24T00:25:51;102536.19;;;18.40;100.00
69318;BME280;56457;52.190;4.440;2023-06-24T00:26:51;102539.75;;;18.36;100.00
69318;BME280;56457;52.190;4.440;2023-06-24T00:27:52;102533.59;;;18.34;100.00
69318;BME280;56457;52.190;4.440;2023-06-24T00:28:52;102539.81;;;18.33;100.00
69318;BME280;56457;52.190;4.440;2023-06-24T00:29:53;102539.00;;;18.27;100.00
69318;BME280;56457;52.190;4.440;2023-06-24T00:30:53;102537.31;;;18.19;100.00
69318;BME280;56457;52.190;4.440;2023-06-24T00:31:54;102537.41;;;18.14;100.00
69318;BME280;56457;52.190;4.440;2023-06-24T00:32:54;102534.75;;;18.11;100.00
69318;BME280;56457;52.190;4.440;2023-06-24T00:33:54;102534.81;;;18.08;100.00
69318;BME280;56457;52.190;4.440;2023-06-24T00:34:55;102532.13;;;18.10;100.00
69318;BME280;56457;52.190;4.440;2023-06-24T00:35:58;102539.16;;;18.15;100.00
69318;BME280;56457;52.190;4.440;2023-06-24T00:36:58;102539.16;;;18.12;100.00
69318;BME280;56457;52.190;4.440;2023-06-24T00:37:58;102545.44;;;18.08;100.00
69318;BME280;56457;52.190;4.440;2023-06-24T00:38:58;102541.06;;;18.04;100.00
69318;BME280;56457;52.190;4.440;2023-06-24T00:40:04;102547.22;;;18.06;100.00
69318;BME280;56457;52.190;4.440;2023-06-24T00:41:05;102539.28;;;18.05;100.00
69318;BME280;56457;52.190;4.440;2023-06-24T00:42:06;102544.63;;;18.00;100.00
69318;BME280;56457;52.190;4.440;2023-06-24T00:43:07;102539.38;;;17.97;100.00
69318;BME280;56457;52.190;4.440;2023-06-24T00:44:08;102539.34;;;17.98;100.00
69318;BME280;56457;52.190;4.440;2023-06-24T00:45:08;102540.28;;;17.96;100.00
69318;BME280;56457;52.190;4.440;2023-06-24T00:46:10;102540.25;;;17.97;100.00
69318;BME280;56457;52.190;4.440;2023-06-24T00:47:10;102533.97;;;18.05;100.00
69318;BME280;56457;52.190;4.440;2023-06-24T00:48:11;102535.69;;;18.09;100.00
69318;BME280;56457;52.190;4.440;2023-06-24T00:49:11;102539.19;;;18.11;100.00
69318;BME280;56457;52.190;4.440;2023-06-24T00:50:17;102535.66;;;18.10;100.00
69318;BME280;56457;52.190;4.440;2023-06-24T00:51:17;102537.47;;;18.07;100.00
69318;BME280;56457;52.190;4.440;2023-06-24T00:52:21;102534.81;;;18.08;100.00
69318;BME280;56457;52.190;4.440;2023-06-24T00:53:21;102538.28;;;18.12;100.00
69318;BME280;56457;52.190;4.440;2023-06-24T00:54:24;102545.38;;;18.11;100.00
69318;BME280;56457;52.190;4.440;2023-06-24T00:55:30;102543.56;;;18.16;100.00
69318;BME280;56457;52.190;4.440;2023-06-24T00:56:31;102537.41;;;18.14;100.00
69318;BME280;56457;52.190;4.440;2023-06-24T00:57:33;102539.19;;;18.14;100.00
69318;BME280;56457;52.190;4.440;2023-06-24T00:58:33;102535.69;;;18.09;100.00
69318;BME280;56457;52.190;4.440;2023-06-24T00:59:35;102530.44;;;18.04;100.00
69318;BME280;56457;52.190;4.440;2023-06-24T01:00:36;102526.97;;;17.97;100.00
69318;BME280;56457;52.190;4.440;2023-06-24T01:01:36;102530.53;;;17.96;100.00
69318;BME280;56457;52.190;4.440;2023-06-24T01:02:37;102525.16;;;17.99;100.00
69318;BME280;56457;52.190;4.440;2023-06-24T01:03:38;102526.91;;;18.00;100.00
69318;BME280;56457;52.190;4.440;2023-06-24T01:04:38;102531.34;;;18.00;100.00
69318;BME280;56457;52.190;4.440;2023-06-24T01:05:38;102523.38;;;18.01;100.00
69318;BME280;56457;52.190;4.440;2023-06-24T01:06:40;102527.00;;;17.96;100.00
69318;BME280;56457;52.190;4.440;2023-06-24T01:07:43;102532.28;;;17.97;100.00
69318;BME280;56457;52.190;4.440;2023-06-24T01:08:43;102528.75;;;17.94;100.00
69318;BME280;56457;52.190;4.440;2023-06-24T01:09:50;102527.91;;;17.92;100.00
69318;BME280;56457;52.190;4.440;2023-06-24T01:10:51;102522.69;;;17.86;100.00
69318;BME280;56457;52.190;4.440;2023-06-24T01:11:51;102526.19;;;17.88;100.00
69318;BME280;56457;52.190;4.440;2023-06-24T01:12:52;102527.94;;;17.90;100.00
69318;BME280;56457;52.190;4.440;2023-06-24T01:13:53;102521.75;;;17.88;100.00
69318;BME280;56457;52.190;4.440;2023-06-24T01:14:53;102522.69;;;17.86;100.00
69318;BME280;56457;52.190;4.440;2023-06-24T01:15:54;102526.22;;;17.85;100.00
69318;BME280;56457;52.190;4.440;2023-06-24T01:17:05;102530.69;;;17.83;100.00
69318;BME280;56457;52.190;4.440;2023-06-24T01:18:11;102523.59;;;17.82;100.00
69318;BME280;56457;52.190;4.440;2023-06-24T01:19:22;102525.44;;;17.75;100.00
69318;BME280;56457;52.190;4.440;2023-06-24T01:20:31;102523.66;;;17.77;100.00
69318;BME280;56457;52.190;4.440;2023-06-24T01:21:41;102524.53;;;17.78;100.00
69318;BME280;56457;52.190;4.440;2023-06-24T01:24:49;102524.56;;;17.74;100.00
69318;BME280;56457;52.190;4.440;2023-06-24T01:27:17;102522.75;;;17.80;100.00
69318;BME280;56457;52.190;4.440;2023-06-24T01:31:59;102515.69;;;17.75;100.00
69318;BME280;56457;52.190;4.440;2023-06-24T01:33:02;102510.41;;;17.77;100.00
69318;BME280;56457;52.190;4.440;2023-06-24T01:35:28;102518.34;;;17.79;100.00
69318;BME280;56457;52.190;4.440;2023-06-24T01:36:31;102519.19;;;17.81;100.00
69318;BME280;56457;52.190;4.440;2023-06-24T01:37:35;102518.28;;;17.82;100.00
69318;BME280;56457;52.190;4.440;2023-06-24T01:38:42;102517.44;;;17.80;100.00
69318;BME280;56457;52.190;4.440;2023-06-24T01:39:50;102516.50;;;17.82;100.00
69318;BME280;56457;52.190;4.440;2023-06-24T01:40:52;102520.03;;;17.84;100.00
69318;BME280;56457;52.190;4.440;2023-06-24T01:41:57;102515.59;;;17.85;100.00
69318;BME280;56457;52.190;4.440;2023-06-24T01:43:01;102512.03;;;17.87;100.00
69318;BME280;56457;52.190;4.440;2023-06-24T01:44:03;102521.78;;;17.87;100.00
69318;BME280;56457;52.190;4.440;2023-06-24T01:45:05;102515.63;;;17.83;100.00
69318;BME280;56457;52.190;4.440;2023-06-24T01:46:06;102520.13;;;17.78;100.00
69318;BME280;56457;52.190;4.440;2023-06-24T01:47:09;102520.13;;;17.78;100.00
69318;BME280;56457;52.190;4.440;2023-06-24T01:48:13;102520.13;;;17.77;100.00
69318;BME280;56457;52.190;4.440;2023-06-24T01:49:14;102512.19;;;17.77;100.00
69318;BME280;56457;52.190;4.440;2023-06-24T01:50:16;102521.06;;;17.72;100.00
69318;BME280;56457;52.190;4.440;2023-06-24T01:51:20;102517.50;;;17.73;100.00
69318;BME280;56457;52.190;4.440;2023-06-24T01:52:21;102521.06;;;17.71;100.00
69318;BME280;56457;52.190;4.440;2023-06-24T01:53:23;102521.06;;;17.72;100.00
69318;BME280;56457;52.190;4.440;2023-06-24T01:54:24;102525.50;;;17.72;100.00
69318;BME280;56457;52.190;4.440;2023-06-24T01:55:26;102521.03;;;17.69;100.00
69318;BME280;56457;52.190;4.440;2023-06-24T01:56:27;102525.47;;;17.69;100.00
69318;BME280;56457;52.190;4.440;2023-06-24T01:57:28;102517.53;;;17.67;100.00
69318;BME280;56457;52.190;4.440;2023-06-24T01:58:30;102524.59;;;17.68;100.00
69318;BME280;56457;52.190;4.440;2023-06-24T01:59:31;102515.81;;;17.62;100.00
69318;BME280;56457;52.190;4.440;2023-06-24T02:00:33;102524.72;;;17.56;100.00
69318;BME280;56457;52.190;4.440;2023-06-24T02:01:34;102526.47;;;17.59;100.00
69318;BME280;56457;52.190;4.440;2023-06-24T02:02:35;102524.69;;;17.61;100.00
69318;BME280;56457;52.190;4.440;2023-06-24T02:03:36;102518.47;;;17.62;100.00
69318;BME280;56457;52.190;4.440;2023-06-24T02:04:37;102524.66;;;17.62;100.00
69318;BME280;56457;52.190;4.440;2023-06-24T02:05:38;102523.78;;;17.62;100.00
69318;BME280;56457;52.190;4.440;2023-06-24T02:06:41;102522.00;;;17.65;100.00
69318;BME280;56457;52.190;4.440;2023-06-24T02:07:42;102512.28;;;17.64;100.00
69318;BME280;56457;52.190;4.440;2023-06-24T02:08:44;102516.66;;;17.64;100.00
69318;BME280;56457;52.190;4.440;2023-06-24T02:09:47;102518.44;;;17.63;100.00
69318;BME280;56457;52.190;4.440;2023-06-24T02:10:48;102512.28;;;17.64;100.00
69318;BME280;56457;52.190;4.440;2023-06-24T02:11:49;102513.16;;;17.63;100.00
69318;BME280;56457;52.190;4.440;2023-06-24T02:12:49;102504.31;;;17.63;100.00
69318;BME280;56457;52.190;4.440;2023-06-24T02:13:51;102514.94;;;17.61;100.00
69318;BME280;56457;52.190;4.440;2023-06-24T02:14:51;102504.38;;;17.58;100.00
69318;BME280;56457;52.190;4.440;2023-06-24T02:15:52;102499.94;;;17.57;100.00
69318;BME280;56457;52.190;4.440;2023-06-24T02:16:53;102503.50;;;17.56;100.00
69318;BME280;56457;52.190;4.440;2023-06-24T02:17:56;102507.03;;;17.55;100.00
69318;BME280;56457;52.190;4.440;2023-06-24T02:18:57;102501.75;;;17.55;100.00
69318;BME280;56457;52.190;4.440;2023-06-24T02:19:57;102501.72;;;17.58;100.00
69318;BME280;56457;52.190;4.440;2023-06-24T02:20:58;102507.00;;;17.60;100.00
69318;BME280;56457;52.190;4.440;2023-06-24T02:21:59;102503.50;;;17.55;100.00
69318;BME280;56457;52.190;4.440;2023-06-24T02:22:59;102503.56;;;17.48;100.00
69318;BME280;56457;52.190;4.440;2023-06-24T02:24:00;102509.78;;;17.47;100.00
69318;BME280;56457;52.190;4.440;2023-06-24T02:25:01;102512.47;;;17.43;100.00
69318;BME280;56457;52.190;4.440;2023-06-24T02:26:02;102508.91;;;17.44;100.00
69318;BME280;56457;52.190;4.440;2023-06-24T02:27:03;102505.41;;;17.42;100.00
69318;BME280;56457;52.190;4.440;2023-06-24T02:28:04;102509.81;;;17.43;100.00
69318;BME280;56457;52.190;4.440;2023-06-24T02:29:05;102506.28;;;17.44;100.00
69318;BME280;56457;52.190;4.440;2023-06-24T02:30:05;102509.81;;;17.43;100.00
69318;BME280;56457;52.190;4.440;2023-06-24T02:31:08;102505.44;;;17.39;100.00
69318;BME280;56457;52.190;4.440;2023-06-24T02:32:09;102501.03;;;17.39;100.00
69318;BME280;56457;52.190;4.440;2023-06-24T02:33:10;102505.44;;;17.39;100.00
69318;BME280;56457;52.190;4.440;2023-06-24T02:34:11;102504.53;;;17.41;100.00
69318;BME280;56457;52.190;4.440;2023-06-24T02:35:12;102501.88;;;17.41;100.00
69318;BME280;56457;52.190;4.440;2023-06-24T02:36:12;102502.72;;;17.45;100.00
69318;BME280;56457;52.190;4.440;2023-06-24T02:37:12;102510.69;;;17.45;100.00
69318;BME280;56457;52.190;4.440;2023-06-24T02:38:13;102502.69;;;17.49;100.00
69318;BME280;56457;52.190;4.440;2023-06-24T02:39:13;102504.47;;;17.49;100.00
69318;BME280;56457;52.190;4.440;2023-06-24T02:40:13;102509.75;;;17.49;100.00
69318;BME280;56457;52.190;4.440;2023-06-24T02:41:14;102501.81;;;17.49;100.00
69318;BME280;56457;52.190;4.440;2023-06-24T02:42:14;102499.16;;;17.47;100.00
69318;BME280;56457;52.190;4.440;2023-06-24T02:43:14;102505.34;;;17.48;100.00
69318;BME280;56457;52.190;4.440;2023-06-24T02:44:15;102500.06;;;17.48;100.00
69318;BME280;56457;52.190;4.440;2023-06-24T02:45:15;102497.41;;;17.45;100.00
69318;BME280;56457;52.190;4.440;2023-06-24T02:46:16;102494.78;;;17.43;100.00
69318;BME280;56457;52.190;4.440;2023-06-24T02:47:16;102500.13;;;17.40;100.00
69318;BME280;56457;52.190;4.440;2023-06-24T02:48:17;102496.59;;;17.40;100.00
69318;BME280;56457;52.190;4.440;2023-06-24T02:49:19;102496.66;;;17.34;100.00
69318;BME280;56457;52.190;4.440;2023-06-24T02:50:20;102503.72;;;17.32;100.00
69318;BME280;56457;52.190;4.440;2023-06-24T02:51:21;102495.84;;;17.24;100.00
69318;BME280;56457;52.190;4.440;2023-06-24T02:52:21;102494.97;;;17.27;100.00
69318;BME280;56457;52.190;4.440;2023-06-24T02:53:21;102494.06;;;17.25;100.00
69318;BME280;56457;52.190;4.440;2023-06-24T02:54:22;102487.88;;;17.27;100.00
69318;BME280;56457;52.190;4.440;2023-06-24T02:55:22;102488.81;;;17.20;100.00
69318;BME280;56457;52.190;4.440;2023-06-24T02:56:24;102490.59;;;17.21;100.00
69318;BME280;56457;52.190;4.440;2023-06-24T02:57:25;102493.28;;;17.16;100.00
69318;BME280;56457;52.190;4.440;2023-06-24T02:58:25;102491.50;;;17.14;100.00
69318;BME280;56457;52.190;4.440;2023-06-24T02:59:31;102495.06;;;17.13;100.00
69318;BME280;56457;52.190;4.440;2023-06-24T03:00:31;102491.53;;;17.12;100.00
69318;BME280;56457;52.190;4.440;2023-06-24T03:01:34;102490.63;;;17.16;100.00
69318;BME280;56457;52.190;4.440;2023-06-24T03:02:38;102486.19;;;17.17;100.00
69318;BME280;56457;52.190;4.440;2023-06-24T03:03:40;102487.03;;;17.22;100.00
69318;BME280;56457;52.190;4.440;2023-06-24T03:04:41;102482.63;;;17.22;100.00
69318;BME280;56457;52.190;4.440;2023-06-24T03:05:41;102484.38;;;17.23;100.00
69318;BME280;56457;52.190;4.440;2023-06-24T03:06:44;102486.13;;;17.25;100.00
69318;BME280;56457;52.190;4.440;2023-06-24T03:07:45;102488.78;;;17.23;100.00
69318;BME280;56457;52.190;4.440;2023-06-24T03:08:46;102489.72;;;17.20;100.00
69318;BME280;56457;52.190;4.440;2023-06-24T03:09:47;102492.41;;;17.16;100.00
69318;BME280;56457;52.190;4.440;2023-06-24T03:10:47;102493.25;;;17.18;100.00
69318;BME280;56457;52.190;4.440;2023-06-24T03:11:48;102487.97;;;17.16;100.00
69318;BME280;56457;52.190;4.440;2023-06-24T03:12:48;102497.72;;;17.14;100.00
69318;BME280;56457;52.190;4.440;2023-06-24T03:13:48;102495.06;;;17.14;100.00
69318;BME280;56457;52.190;4.440;2023-06-24T03:14:49;102491.50;;;17.14;100.00
69318;BME280;56457;52.190;4.440;2023-06-24T03:15:49;102496.88;;;17.09;100.00
69318;BME280;56457;52.190;4.440;2023-06-24T03:16:49;102500.44;;;17.05;100.00
69318;BME280;56457;52.190;4.440;2023-06-24T03:17:50;102494.25;;;17.05;100.00
69318;BME280;56457;52.190;4.440;2023-06-24T03:18:50;102497.78;;;17.05;100.00
69318;BME280;56457;52.190;4.440;2023-06-24T03:19:51;102491.59;;;17.06;100.00
69318;BME280;56457;52.190;4.440;2023-06-24T03:20:51;102494.16;;;17.14;100.00
69318;BME280;56457;52.190;4.440;2023-06-24T03:21:52;102498.59;;;17.13;100.00
69318;BME280;56457;52.190;4.440;2023-06-24T03:22:52;102494.19;;;17.15;100.00
69318;BME280;56457;52.190;4.440;2023-06-24T03:23:53;102498.59;;;17.15;100.00
69318;BME280;56457;52.190;4.440;2023-06-24T03:24:53;102490.63;;;17.13;100.00
69318;BME280;56457;52.190;4.440;2023-06-24T03:25:53;102493.28;;;17.13;100.00
69318;BME280;56457;52.190;4.440;2023-06-24T03:26:54;102497.72;;;17.14;100.00
69318;BME280;56457;52.190;4.440;2023-06-24T03:27:56;102488.88;;;17.12;100.00
69318;BME280;56457;52.190;4.440;2023-06-24T03:28:57;102488.94;;;17.09;100.00
69318;BME280;56457;52.190;4.440;2023-06-24T03:29:57;102495.09;;;17.11;100.00
69318;BME280;56457;52.190;4.440;2023-06-24T03:30:58;102494.22;;;17.11;100.00
69318;BME280;56457;52.190;4.440;2023-06-24T03:31:58;102493.34;;;17.09;100.00
69318;BME280;56457;52.190;4.440;2023-06-24T03:32:58;102496.88;;;17.11;100.00
69318;BME280;56457;52.190;4.440;2023-06-24T03:33:58;102493.28;;;17.13;100.00
69318;BME280;56457;52.190;4.440;2023-06-24T03:34:59;102495.97;;;17.10;100.00
69318;BME280;56457;52.190;4.440;2023-06-24T03:35:59;102503.91;;;17.12;100.00
69318;BME280;56457;52.190;4.440;2023-06-24T03:36:59;102498.59;;;17.13;100.00
69318;BME280;56457;52.190;4.440;2023-06-24T03:38:00;102501.28;;;17.12;100.00
69318;BME280;56457;52.190;4.440;2023-06-24T03:39:00;102502.19;;;17.09;100.00
69318;BME280;56457;52.190;4.440;2023-06-24T03:40:00;102505.69;;;17.14;100.00
69318;BME280;56457;52.190;4.440;2023-06-24T03:41:01;102496.78;;;17.18;100.00
69318;BME280;56457;52.190;4.440;2023-06-24T03:42:01;102496.78;;;17.21;100.00
69318;BME280;56457;52.190;4.440;2023-06-24T03:43:01;102489.72;;;17.20;100.00
69318;BME280;56457;52.190;4.440;2023-06-24T03:44:02;102499.41;;;17.20;100.00
69318;BME280;56457;52.190;4.440;2023-06-24T03:45:03;102494.97;;;17.23;100.00
69318;BME280;56457;52.190;4.440;2023-06-24T03:46:03;102500.28;;;17.23;100.00
69318;BME280;56457;52.190;4.440;2023-06-24T03:47:04;102494.97;;;17.23;100.00
69318;BME280;56457;52.190;4.440;2023-06-24T03:48:04;102498.56;;;17.21;100.00
69318;BME280;56457;52.190;4.440;2023-06-24T03:49:04;102498.50;;;17.24;100.00
69318;BME280;56457;52.190;4.440;2023-06-24T03:50:05;102495.00;;;17.22;100.00
69318;BME280;56457;52.190;4.440;2023-06-24T03:51:05;102496.72;;;17.25;100.00
69318;BME280;56457;52.190;4.440;2023-06-24T03:52:06;102500.31;;;17.20;100.00
69318;BME280;56457;52.190;4.440;2023-06-24T03:53:09;102507.41;;;17.18;100.00
69318;BME280;56457;52.190;4.440;2023-06-24T03:54:09;102504.75;;;17.17;100.00
69318;BME280;56457;52.190;4.440;2023-06-24T03:55:09;102507.44;;;17.15;100.00
69318;BME280;56457;52.190;4.440;2023-06-24T03:56:11;102504.75;;;17.17;100.00
69318;BME280;56457;52.190;4.440;2023-06-24T03:57:11;102506.53;;;17.18;100.00
69318;BME280;56457;52.190;4.440;2023-06-24T03:58:11;102505.63;;;17.17;100.00
69318;BME280;56457;52.190;4.440;2023-06-24T03:59:11;102504.75;;;17.17;100.00
69318;BME280;56457;52.190;4.440;2023-06-24T04:00:12;102512.72;;;17.17;100.00
69318;BME280;56457;52.190;4.440;2023-06-24T04:01:16;102514.47;;;17.18;100.00
69318;BME280;56457;52.190;4.440;2023-06-24T04:02:19;102513.56;;;17.19;100.00
69318;BME280;56457;52.190;4.440;2023-06-24T04:03:20;102518.94;;;17.16;100.00
69318;BME280;56457;52.190;4.440;2023-06-24T04:04:20;102516.28;;;17.13;100.00
69318;BME280;56457;52.190;4.440;2023-06-24T04:05:20;102517.22;;;17.09;100.00
69318;BME280;56457;52.190;4.440;2023-06-24T04:06:21;102523.41;;;17.09;100.00
69318;BME280;56457;52.190;4.440;2023-06-24T04:07:22;102521.59;;;17.11;100.00
69318;BME280;56457;52.190;4.440;2023-06-24T04:08:27;102519.84;;;17.10;100.00
69318;BME280;56457;52.190;4.440;2023-06-24T04:09:32;102518.94;;;17.13;100.00
69318;BME280;56457;52.190;4.440;2023-06-24T04:10:33;102519.75;;;17.19;100.00
69318;BME280;56457;52.190;4.440;2023-06-24T04:11:33;102518.00;;;17.18;100.00
69318;BME280;56457;52.190;4.440;2023-06-24T04:12:36;102519.75;;;17.19;100.00
69318;BME280;56457;52.190;4.440;2023-06-24T04:13:36;102514.44;;;17.19;100.00
69318;BME280;56457;52.190;4.440;2023-06-24T04:14:37;102512.69;;;17.20;100.00
69318;BME280;56457;52.190;4.440;2023-06-24T04:15:37;102518.00;;;17.18;100.00
69318;BME280;56457;52.190;4.440;2023-06-24T04:16:37;102516.25;;;17.17;100.00
69318;BME280;56457;52.190;4.440;2023-06-24T04:17:38;102526.84;;;17.17;100.00
69318;BME280;56457;52.190;4.440;2023-06-24T04:18:38;102520.66;;;17.18;100.00
69318;BME280;56457;52.190;4.440;2023-06-24T04:19:39;102525.09;;;17.16;100.00
69318;BME280;56457;52.190;4.440;2023-06-24T04:20:40;102524.22;;;17.17;100.00
69318;BME280;56457;52.190;4.440;2023-06-24T04:21:40;102519.75;;;17.19;100.00
69318;BME280;56457;52.190;4.440;2023-06-24T04:22:40;102527.72;;;17.21;100.00
69318;BME280;56457;52.190;4.440;2023-06-24T04:23:41;102514.47;;;17.21;100.00
69318;BME280;56457;52.190;4.440;2023-06-24T04:24:41;102525.00;;;17.29;100.00
69318;BME280;56457;52.190;4.440;2023-06-24T04:25:42;102519.69;;;17.29;100.00
69318;BME280;56457;52.190;4.440;2023-06-24T04:26:42;102522.31;;;17.30;100.00
69318;BME280;56457;52.190;4.440;2023-06-24T04:27:42;102514.34;;;17.32;100.00
69318;BME280;56457;52.190;4.440;2023-06-24T04:28:43;102521.41;;;17.33;100.00
69318;BME280;56457;52.190;4.440;2023-06-24T04:29:43;102519.63;;;17.35;100.00
69318;BME280;56457;52.190;4.440;2023-06-24T04:30:43;102522.28;;;17.35;100.00
69318;BME280;56457;52.190;4.440;2023-06-24T04:31:43;102519.59;;;17.41;100.00
69318;BME280;56457;52.190;4.440;2023-06-24T04:32:44;102516.91;;;17.42;100.00
69318;BME280;56457;52.190;4.440;2023-06-24T04:33:44;102519.53;;;17.47;100.00
69318;BME280;56457;52.190;4.440;2023-06-24T04:34:44;102511.59;;;17.45;100.00
69318;BME280;56457;52.190;4.440;2023-06-24T04:35:44;102516.00;;;17.46;100.00
69318;BME280;56457;52.190;4.440;2023-06-24T04:36:45;102520.38;;;17.49;100.00
69318;BME280;56457;52.190;4.440;2023-06-24T04:37:45;102515.94;;;17.49;100.00
69318;BME280;56457;52.190;4.440;2023-06-24T04:38:45;102511.50;;;17.50;100.00
69318;BME280;56457;52.190;4.440;2023-06-24T04:39:46;102526.53;;;17.54;100.00
69318;BME280;56457;52.190;4.440;2023-06-24T04:40:46;102530.91;;;17.58;100.00
69318;BME280;56457;52.190;4.440;2023-06-24T04:41:46;102525.59;;;17.58;100.00
69318;BME280;56457;52.190;4.440;2023-06-24T04:42:47;102526.50;;;17.56;100.00
69318;BME280;56457;52.190;4.440;2023-06-24T04:43:47;102531.78;;;17.59;100.00
69318;BME280;56457;52.190;4.440;2023-06-24T04:44:48;102532.69;;;17.56;100.00
69318;BME280;56457;52.190;4.440;2023-06-24T04:45:51;102538.88;;;17.55;100.00
69318;BME280;56457;52.190;4.440;2023-06-24T04:46:51;102538.81;;;17.61;100.00
69318;BME280;56457;52.190;4.440;2023-06-24T04:47:52;102534.38;;;17.63;100.00
69318;BME280;56457;52.190;4.440;2023-06-24T04:48:53;102535.25;;;17.65;100.00
69318;BME280;56457;52.190;4.440;2023-06-24T04:49:53;102539.72;;;17.62;100.00
69318;BME280;56457;52.190;4.440;2023-06-24T04:50:53;102531.72;;;17.63;100.00
69318;BME280;56457;52.190;4.440;2023-06-24T04:51:54;102538.75;;;17.72;100.00
69318;BME280;56457;52.190;4.440;2023-06-24T04:52:55;102532.50;;;17.76;100.00
69318;BME280;56457;52.190;4.440;2023-06-24T04:53:56;102528.91;;;17.83;100.00
69318;BME280;56457;52.190;4.440;2023-06-24T04:54:57;102530.63;;;17.89;100.00
69318;BME280;56457;52.190;4.440;2023-06-24T04:55:57;102535.03;;;17.90;100.00
69318;BME280;56457;52.190;4.440;2023-06-24T04:56:57;102529.72;;;17.90;100.00
69318;BME280;56457;52.190;4.440;2023-06-24T04:57:57;102524.44;;;17.87;100.00
69318;BME280;56457;52.190;4.440;2023-06-24T04:58:58;102529.66;;;17.96;100.00
69318;BME280;56457;52.190;4.440;2023-06-24T04:59:58;102531.41;;;17.94;100.00
69318;BME280;56457;52.190;4.440;2023-06-24T05:00:58;102534.09;;;17.92;100.00
69318;BME280;56457;52.190;4.440;2023-06-24T05:01:59;102532.31;;;17.96;100.00
69318;BME280;56457;52.190;4.440;2023-06-24T05:02:59;102527.91;;;17.92;100.00
69318;BME280;56457;52.190;4.440;2023-06-24T05:03:59;102523.53;;;17.89;100.00
69318;BME280;56457;52.190;4.440;2023-06-24T05:05:00;102532.41;;;17.85;100.00
69318;BME280;56457;52.190;4.440;2023-06-24T05:06:00;102521.81;;;17.84;100.00
69318;BME280;56457;52.190;4.440;2023-06-24T05:07:00;102526.22;;;17.86;100.00
69318;BME280;56457;52.190;4.440;2023-06-24T05:08:00;102524.34;;;17.96;100.00
69318;BME280;56457;52.190;4.440;2023-06-24T05:09:01;102535.84;;;17.96;100.00
69318;BME280;56457;52.190;4.440;2023-06-24T05:10:01;102532.28;;;17.94;100.00
69318;BME280;56457;52.190;4.440;2023-06-24T05:11:01;102527.88;;;17.95;100.00
69318;BME280;56457;52.190;4.440;2023-06-24T05:12:02;102533.22;;;17.92;100.00
69318;BME280;56457;52.190;4.440;2023-06-24T05:13:02;102531.41;;;17.94;100.00
69318;BME280;56457;52.190;4.440;2023-06-24T05:14:02;102535.81;;;17.95;100.00
69318;BME280;56457;52.190;4.440;2023-06-24T05:15:03;102541.16;;;17.96;100.00
69318;BME280;56457;52.190;4.440;2023-06-24T05:16:04;102536.66;;;18.01;100.00
69318;BME280;56457;52.190;4.440;2023-06-24T05:17:04;102536.63;;;18.03;100.00
69318;BME280;56457;52.190;4.440;2023-06-24T05:18:05;102541.00;;;18.09;100.00
69318;BME280;56457;52.190;4.440;2023-06-24T05:19:05;102534.75;;;18.11;100.00
69318;BME280;56457;52.190;4.440;2023-06-24T05:20:05;102538.19;;;18.19;100.00
69318;BME280;56457;52.190;4.440;2023-06-24T05:21:06;102538.13;;;18.24;100.00
69318;BME280;56457;52.190;4.440;2023-06-24T05:22:06;102532.00;;;18.19;100.00
69318;BME280;56457;52.190;4.440;2023-06-24T05:23:07;102529.34;;;18.20;100.00
69318;BME280;56457;52.190;4.440;2023-06-24T05:24:07;102539.91;;;18.26;100.00